Time;durP1;ratioP1;P1;durP2;ratioP2;P2;SDS_P1;SDS_P2;PMS_P1;PMS_P2;Temp;Humidity;BMP_temperature;BMP_pressure;BME280_temperature;BME280_humidity;BME280_pressure;Samples;Min_cycle;Max_cycle;Signal;HPM_P1;HPM_P2
2023/03/21 00:00:18;;;;;;;7.82;4.25;;;;;;;8.52;100.00;99034.31;5013031;28;20769;-58
2023/03/21 00:02:43;;;;;;;7.72;3.92;;;;;;;8.45;100.00;99030.66;5010634;28;20029;-58
2023/03/21 00:05:09;;;;;;;9.35;4.30;;;;;;;8.46;100.00;99032.38;5012287;28;20339;-58
2023/03/21 00:07:34;;;;;;;7.70;3.60;;;;;;;8.41;100.00;99026.69;5011767;28;20545;-58
2023/03/21 00:10:00;;;;;;;8.52;3.85;;;;;;;8.37;100.00;99025.34;5013716;28;20029;-57
2023/03/21 00:12:25;;;;;;;8.10;3.40;;;;;;;8.31;100.00;99024.22;5009835;28;20048;-58
2023/03/21 00:14:52;;;;;;;5.97;3.60;;;;;;;8.27;100.00;99019.38;5012829;28;20438;-58
2023/03/21 00:17:21;;;;;;;6.43;3.10;;;;;;;8.24;100.00;99015.19;5007665;28;20076;-58
2023/03/21 00:19:47;;;;;;;12.93;3.67;;;;;;;8.29;100.00;99015.47;5016587;28;20025;-58
2023/03/21 00:22:13;;;;;;;6.05;3.47;;;;;;;8.33;100.00;99018.63;5013180;28;20041;-58
2023/03/21 00:24:39;;;;;;;10.50;3.80;;;;;;;8.34;100.00;99017.63;5012055;28;20029;-58
2023/03/21 00:27:04;;;;;;;7.78;4.03;;;;;;;8.37;100.00;99019.94;5012160;28;20465;-58
2023/03/21 00:29:29;;;;;;;6.93;4.20;;;;;;;8.40;100.00;99018.78;5009945;28;20052;-58
2023/03/21 00:31:55;;;;;;;6.82;3.42;;;;;;;8.43;100.00;99007.63;5005246;28;20048;-58
2023/03/21 00:34:20;;;;;;;5.35;3.63;;;;;;;8.42;100.00;99017.56;5008706;28;20068;-58
2023/03/21 00:36:45;;;;;;;7.85;3.33;;;;;;;8.33;100.00;99011.41;5004469;28;20041;-58
2023/03/21 00:42:48;;;;;;;6.57;3.10;;;;;;;8.24;100.00;99022.44;5025672;28;20115;-58
2023/03/21 00:45:15;;;;;;;7.22;3.25;;;;;;;8.17;100.00;99010.69;5007436;28;20032;-58
2023/03/21 00:47:40;;;;;;;6.10;3.78;;;;;;;8.12;100.00;99005.84;5006823;28;20065;-58
2023/03/21 00:50:06;;;;;;;5.47;3.58;;;;;;;8.10;100.00;98992.56;4998170;28;20485;-58
2023/03/21 00:52:32;;;;;;;10.80;3.90;;;;;;;8.10;100.00;98989.88;4992137;28;20692;-58
2023/03/21 00:54:57;;;;;;;7.13;3.50;;;;;;;8.16;100.00;98998.25;4998405;28;20539;-58
2023/03/21 00:57:22;;;;;;;8.02;3.95;;;;;;;8.16;100.00;98992.88;5000492;28;20030;-58
2023/03/21 00:59:48;;;;;;;8.43;4.00;;;;;;;8.15;100.00;98983.94;5005646;28;20401;-58
2023/03/21 01:02:21;;;;;;;7.25;3.85;;;;;;;8.14;100.00;98976.88;5008834;28;20470;-58
2023/03/21 01:04:48;;;;;;;6.05;3.80;;;;;;;8.15;100.00;98975.00;4988802;28;20041;-58
2023/03/21 01:07:14;;;;;;;10.48;3.95;;;;;;;8.12;100.00;98974.38;4999013;28;20036;-58
2023/03/21 01:09:39;;;;;;;8.90;4.38;;;;;;;8.09;100.00;98981.97;5010852;28;20030;-58
2023/03/21 01:12:05;;;;;;;7.13;4.15;;;;;;;8.06;100.00;98979.66;4981042;28;20022;-58
2023/03/21 01:14:30;;;;;;;6.35;3.97;;;;;;;8.09;100.00;98974.72;4999772;28;20034;-58
2023/03/21 01:16:55;;;;;;;4.80;3.72;;;;;;;8.08;100.00;98975.75;4993879;28;20113;-58
2023/03/21 01:19:25;;;;;;;7.78;3.90;;;;;;;8.08;100.00;98977.63;4995759;28;20052;-58
2023/03/21 01:21:50;;;;;;;5.43;3.78;;;;;;;8.05;100.00;98978.81;4991801;28;20057;-58
2023/03/21 01:24:16;;;;;;;12.50;3.58;;;;;;;8.06;100.00;98968.88;4991010;28;20134;-58
2023/03/21 01:26:41;;;;;;;7.32;3.60;;;;;;;8.13;100.00;98977.91;4994002;28;20061;-58
2023/03/21 01:29:06;;;;;;;13.85;3.60;;;;;;;8.11;100.00;98971.84;4996379;28;20419;-58
2023/03/21 01:31:32;;;;;;;7.47;3.90;;;;;;;8.06;100.00;98961.63;4992800;28;20389;-58
2023/03/21 01:33:57;;;;;;;4.50;3.28;;;;;;;8.04;100.00;98969.06;5000371;28;20033;-58
2023/03/21 01:36:25;;;;;;;6.63;3.53;;;;;;;8.06;100.00;98960.78;4991096;28;20081;-57
2023/03/21 01:38:51;;;;;;;7.10;3.45;;;;;;;8.04;100.00;98966.38;4994248;28;20542;-58
2023/03/21 01:41:19;;;;;;;8.68;3.42;;;;;;;8.03;100.00;98969.25;4996279;28;20030;-57
2023/03/21 01:43:45;;;;;;;10.80;3.55;;;;;;;7.99;100.00;98963.38;5011712;28;20038;-67
2023/03/21 01:46:58;;;;;;;7.82;3.45;;;;;;;7.94;100.00;98964.94;4994362;28;20398;-69
2023/03/21 01:49:35;;;;;;;5.85;3.30;;;;;;;7.86;100.00;98950.53;4978473;28;20164;-69
2023/03/21 01:52:05;;;;;;;5.53;3.15;;;;;;;8.00;100.00;98959.66;4995918;28;20025;-68
2023/03/21 01:54:36;;;;;;;4.95;3.05;;;;;;;7.95;100.00;98962.06;5006610;28;20109;-67
2023/03/21 01:57:07;;;;;;;6.88;3.13;;;;;;;7.98;100.00;98955.47;5001786;28;20026;-67
2023/03/21 01:59:41;;;;;;;4.00;2.70;;;;;;;7.89;100.00;98958.25;5000033;28;20552;-68
2023/03/21 02:02:14;;;;;;;5.20;2.80;;;;;;;7.83;100.00;98952.75;4990340;28;20021;-68
2023/03/21 02:04:39;;;;;;;8.30;3.47;;;;;;;7.98;100.00;98950.91;5005824;28;20038;-67
2023/03/21 02:07:13;;;;;;;9.40;4.40;;;;;;;7.93;100.00;98949.81;4999844;28;20026;-68
2023/03/21 02:09:43;;;;;;;11.60;4.80;;;;;;;7.83;100.00;98942.81;5005306;28;20026;-68
2023/03/21 02:12:09;;;;;;;13.57;5.35;;;;;;;7.81;100.00;98933.25;4992098;28;20030;-67
2023/03/21 02:14:37;;;;;;;16.23;6.25;;;;;;;7.78;100.00;98939.84;4986684;28;20044;-67
2023/03/21 02:17:05;;;;;;;12.85;6.35;;;;;;;7.75;100.00;98939.34;4991559;28;20049;-67
2023/03/21 02:19:53;;;;;;;9.82;5.30;;;;;;;7.77;100.00;98931.94;4996322;28;20030;-67
2023/03/21 02:22:43;;;;;;;7.00;3.85;;;;;;;7.73;100.00;98942.25;5009636;28;20057;-67
2023/03/21 02:25:11;;;;;;;6.95;3.40;;;;;;;7.67;100.00;98943.78;4989410;28;20034;-67
2023/03/21 02:27:48;;;;;;;4.25;2.28;;;;;;;7.65;100.00;98943.16;5007814;28;20544;-68
2023/03/21 02:30:29;;;;;;;5.68;3.58;;;;;;;7.72;100.00;98942.41;4991792;28;20057;-68
2023/03/21 02:33:10;;;;;;;5.55;3.55;;;;;;;7.72;100.00;98942.41;4998700;28;20025;-67
2023/03/21 02:36:12;;;;;;;7.68;3.53;;;;;;;7.71;100.00;98938.88;5007644;28;20040;-68
2023/03/21 02:39:12;;;;;;;6.93;2.80;;;;;;;7.69;100.00;98930.16;5013772;28;20363;-67
2023/03/21 02:41:58;;;;;;;5.10;3.10;;;;;;;7.72;100.00;98942.41;4982490;28;20029;-67
2023/03/21 02:44:34;;;;;;;5.32;2.95;;;;;;;7.69;100.00;98933.66;4990663;28;20040;-68
2023/03/21 02:47:12;;;;;;;4.80;3.05;;;;;;;7.63;100.00;98942.50;4987345;28;20033;-68
2023/03/21 02:50:13;;;;;;;9.25;3.40;;;;;;;7.52;100.00;98933.97;5011943;28;20022;-67
2023/03/21 02:52:44;;;;;;;5.82;3.45;;;;;;;7.53;100.00;98931.13;5006546;28;20048;-67
2023/03/21 02:55:21;;;;;;;7.20;3.10;;;;;;;7.68;100.00;98931.19;4986817;28;20065;-67
2023/03/21 02:57:49;;;;;;;6.32;3.80;;;;;;;7.61;100.00;98928.34;5326382;23;20455;-60
2023/03/21 03:00:20;;;;;;;6.13;3.70;;;;;;;7.56;100.00;98930.75;5011937;28;20034;-59
2023/03/21 03:02:49;;;;;;;7.57;3.90;;;;;;;7.52;100.00;98932.16;5011932;28;20037;-59
2023/03/21 03:05:26;;;;;;;7.05;4.13;;;;;;;7.53;100.00;98928.44;5013796;28;20061;-59
2023/03/21 03:08:10;;;;;;;9.10;4.40;;;;;;;7.49;100.00;98926.28;5021706;28;20785;-59
2023/03/21 03:10:57;;;;;;;10.18;4.38;;;;;;;7.46;100.00;98931.00;5020073;28;20134;-59
2023/03/21 03:13:52;;;;;;;9.23;4.53;;;;;;;7.51;100.00;98927.75;5019969;28;20116;-59
2023/03/21 03:16:42;;;;;;;6.97;3.85;;;;;;;7.49;100.00;98926.28;5027874;28;20396;-59
2023/03/21 03:19:12;;;;;;;7.85;4.10;;;;;;;7.54;100.00;98923.88;5008083;28;20029;-59
2023/03/21 03:21:48;;;;;;;9.95;3.90;;;;;;;7.55;100.00;98918.31;5023119;28;20059;-59
2023/03/21 03:24:20;;;;;;;6.38;3.65;;;;;;;7.61;100.00;98924.84;5009381;28;20132;-59
2023/03/21 03:26:45;;;;;;;8.20;3.45;;;;;;;7.68;100.00;98913.16;5010251;28;20022;-59
2023/03/21 03:29:15;;;;;;;4.68;2.97;;;;;;;7.69;100.00;98917.50;5014481;28;20380;-59
2023/03/21 03:31:49;;;;;;;8.15;4.05;;;;;;;7.62;100.00;98919.28;5011373;28;20033;-59
2023/03/21 03:34:20;;;;;;;6.18;3.80;;;;;;;7.55;100.00;98923.72;5012242;28;20025;-66
2023/03/21 03:36:50;;;;;;;5.72;3.58;;;;;;;7.56;100.00;98914.59;5022578;28;20032;-65
2023/03/21 03:39:16;;;;;;;14.57;5.03;;;;;;;7.55;100.00;98920.19;5028781;28;20373;-65
2023/03/21 03:41:51;;;;;;;6.88;3.85;;;;;;;7.49;100.00;98918.19;5015671;28;20075;-65
2023/03/21 03:44:17;;;;;;;7.90;3.95;;;;;;;7.41;100.00;98927.16;5014536;28;20061;-65
2023/03/21 03:47:00;;;;;;;7.13;3.88;;;;;;;7.34;100.00;98931.63;5007683;28;20064;-65
2023/03/21 03:49:32;;;;;;;7.70;3.72;;;;;;;7.30;100.00;98920.34;5018250;28;20334;-65
2023/03/21 03:52:08;;;;;;;6.45;3.95;;;;;;;7.28;100.00;98921.56;5010984;28;20018;-65
2023/03/21 03:54:41;;;;;;;7.88;3.75;;;;;;;7.28;100.00;98921.56;5016687;28;20057;-65
2023/03/21 03:57:07;;;;;;;8.07;4.30;;;;;;;7.31;100.00;98924.75;5014500;28;20034;-65
2023/03/21 03:59:37;;;;;;;6.72;4.32;;;;;;;7.32;100.00;98922.88;5012510;28;20025;-66
2023/03/21 04:02:03;;;;;;;10.50;4.07;;;;;;;7.38;100.00;98928.38;5008720;28;20025;-66
2023/03/21 04:04:28;;;;;;;6.85;3.78;;;;;;;7.36;100.00;98914.28;5010875;28;20032;-66
2023/03/21 04:06:54;;;;;;;5.72;3.45;;;;;;;7.39;100.00;98915.78;5015476;28;20036;-65
2023/03/21 04:09:20;;;;;;;13.35;3.80;;;;;;;7.34;100.00;98910.09;5008724;28;20025;-66
2023/03/21 04:11:46;;;;;;;5.63;3.67;;;;;;;7.39;100.00;98916.59;5008833;28;20492;-66
2023/03/21 04:14:12;;;;;;;9.07;3.58;;;;;;;7.34;100.00;98916.31;5015497;28;20029;-66
2023/03/21 04:16:37;;;;;;;7.90;3.90;;;;;;;7.33;100.00;98906.53;5011437;28;20048;-66
2023/03/21 04:19:03;;;;;;;6.75;4.10;;;;;;;7.27;100.00;98904.56;5017077;28;20039;-66
2023/03/21 04:21:28;;;;;;;9.82;3.95;;;;;;;7.29;100.00;98912.47;5015607;28;20037;-65
2023/03/21 04:23:54;;;;;;;8.18;3.90;;;;;;;7.24;100.00;98905.78;5015992;28;20037;-65
2023/03/21 04:26:21;;;;;;;6.32;3.67;;;;;;;7.21;100.00;98914.22;5020835;28;20023;-65
2023/03/21 04:28:48;;;;;;;7.35;3.90;;;;;;;7.18;100.00;98906.50;5007864;28;20025;-66
2023/03/21 04:31:14;;;;;;;6.00;3.88;;;;;;;7.18;100.00;98911.88;5014349;28;20112;-65
2023/03/21 04:33:40;;;;;;;6.72;3.90;;;;;;;7.15;100.00;98912.25;5013288;28;20108;-66
2023/03/21 04:36:08;;;;;;;6.70;3.63;;;;;;;7.20;100.00;98909.84;5018571;28;20384;-66
2023/03/21 04:38:34;;;;;;;6.60;3.45;;;;;;;7.18;100.00;98906.50;5014596;28;20121;-66
2023/03/21 04:41:00;;;;;;;4.35;2.97;;;;;;;7.14;100.00;98909.72;5016403;28;20499;-66
2023/03/21 04:43:27;;;;;;;5.95;3.33;;;;;;;7.12;100.00;98909.88;5007215;28;20033;-66
2023/03/21 04:45:53;;;;;;;8.32;4.03;;;;;;;7.14;100.00;98909.72;5012665;28;20392;-66
2023/03/21 04:48:23;;;;;;;10.23;3.75;;;;;;;7.14;100.00;98901.66;5016712;28;20057;-65
2023/03/21 04:50:49;;;;;;;7.65;4.05;;;;;;;7.13;100.00;98900.81;5017252;28;20021;-65
2023/03/21 04:53:14;;;;;;;9.30;4.50;;;;;;;7.13;100.00;98898.13;5019470;28;20021;-65
2023/03/21 04:55:40;;;;;;;7.55;3.60;;;;;;;7.12;100.00;98898.28;5015179;28;20032;-65
2023/03/21 04:58:05;;;;;;;8.32;3.88;;;;;;;7.12;100.00;98896.44;5012230;28;20028;-65
2023/03/21 05:00:36;;;;;;;7.60;3.78;;;;;;;7.12;100.00;98899.13;5017560;28;20025;-65
2023/03/21 05:03:01;;;;;;;7.47;3.92;;;;;;;7.13;100.00;98903.50;5014663;28;20392;-66
2023/03/21 05:05:27;;;;;;;9.50;3.67;;;;;;;7.15;100.00;98892.53;5014721;28;20029;-66
2023/03/21 05:07:52;;;;;;;11.75;4.30;;;;;;;7.18;100.00;98895.72;5005406;28;20025;-66
2023/03/21 05:10:18;;;;;;;6.72;3.83;;;;;;;7.19;100.00;98899.25;5016072;28;20029;-66
2023/03/21 05:12:43;;;;;;;9.95;3.85;;;;;;;7.20;100.00;98899.09;5015309;28;20030;-65
2023/03/21 05:15:09;;;;;;;6.72;3.03;;;;;;;7.15;100.00;98901.47;5016824;28;20048;-65
2023/03/21 05:17:35;;;;;;;8.02;3.40;;;;;;;7.10;100.00;98893.09;5014252;28;20120;-66
2023/03/21 05:20:00;;;;;;;9.32;3.05;;;;;;;7.08;100.00;98900.50;5015536;28;20117;-66
2023/03/21 05:22:27;;;;;;;5.38;3.13;;;;;;;7.06;100.00;98907.09;5011999;28;20018;-66
2023/03/21 05:24:54;;;;;;;7.72;3.28;;;;;;;7.06;100.00;98907.09;5011316;28;20457;-65
2023/03/21 05:27:33;;;;;;;5.72;3.40;;;;;;;7.07;100.00;98898.81;5016711;28;20026;-65
2023/03/21 05:30:00;;;;;;;8.52;3.88;;;;;;;7.10;100.00;98903.00;5011169;28;20029;-66
2023/03/21 05:32:26;;;;;;;6.75;3.63;;;;;;;7.16;100.00;98897.75;5010031;28;20029;-65
2023/03/21 05:34:51;;;;;;;9.13;3.97;;;;;;;7.19;100.00;98893.88;5023395;28;20040;-65
2023/03/21 05:37:17;;;;;;;6.82;3.55;;;;;;;7.26;100.00;98892.16;5020802;28;20025;-65
2023/03/21 05:39:42;;;;;;;11.13;3.75;;;;;;;7.26;100.00;98892.16;5015614;28;20029;-65
2023/03/21 05:42:08;;;;;;;9.20;3.95;;;;;;;7.27;100.00;98896.50;5017394;28;20052;-65
2023/03/21 05:44:33;;;;;;;10.35;4.40;;;;;;;7.32;100.00;98890.59;5015216;28;20037;-65
2023/03/21 05:46:59;;;;;;;11.32;4.63;;;;;;;7.42;100.00;98891.19;5014494;28;20035;-66
2023/03/21 05:49:25;;;;;;;10.90;4.60;;;;;;;7.50;100.00;98892.97;5014519;28;20477;-65
2023/03/21 05:51:51;;;;;;;12.15;5.45;;;;;;;7.45;100.00;98893.50;5021329;28;20060;-66
2023/03/21 05:54:16;;;;;;;14.52;7.00;;;;;;;7.53;100.00;98898.81;5011219;28;20056;-65
2023/03/21 05:56:43;;;;;;;7.70;4.97;;;;;;;7.60;100.00;98897.06;5015376;28;20022;-66
2023/03/21 05:59:08;;;;;;;11.10;4.45;;;;;;;7.82;100.00;98902.59;5022380;28;20092;-65
2023/03/21 06:01:34;;;;;;;10.20;4.13;;;;;;;7.86;100.00;98903.91;5014253;28;20037;-66
2023/03/21 06:03:59;;;;;;;11.02;4.07;;;;;;;7.99;100.00;98908.66;5012830;28;20079;-66
2023/03/21 06:06:25;;;;;;;6.70;3.85;;;;;;;8.06;100.00;98907.72;5014803;28;20082;-65
2023/03/21 06:08:50;;;;;;;8.05;4.18;;;;;;;8.07;100.00;98912.13;5008418;28;20029;-65
2023/03/21 06:11:23;;;;;;;8.65;4.13;;;;;;;8.20;100.00;98902.53;5016875;28;20018;-66
2023/03/21 06:13:49;;;;;;;9.20;4.85;;;;;;;8.42;100.00;98896.25;5015820;28;20029;-66
2023/03/21 06:16:14;;;;;;;10.73;4.78;;;;;;;8.44;100.00;98901.47;5010871;28;20076;-66
2023/03/21 06:18:39;;;;;;;8.90;4.68;;;;;;;8.56;100.00;98895.38;5028246;28;20109;-65
2023/03/21 06:21:05;;;;;;;7.50;4.70;;;;;;;8.55;100.00;98896.41;5026365;28;20033;-59
2023/03/21 06:23:31;;;;;;;15.48;4.00;;;;;;;8.69;100.00;98899.28;5033309;28;20025;-59
2023/03/21 06:25:58;;;;;;;7.03;4.18;;;;;;;8.75;100.00;98903.91;5021860;28;20034;-59
2023/03/21 06:28:23;;;;;;;6.00;3.80;;;;;;;8.73;100.00;98903.28;5020201;28;20028;-59
2023/03/21 06:30:49;;;;;;;7.28;4.13;;;;;;;8.83;100.00;98898.41;5013382;28;20025;-59
2023/03/21 06:33:14;;;;;;;9.60;4.30;;;;;;;8.82;100.00;98904.81;5014383;28;20025;-59
2023/03/21 06:35:39;;;;;;;11.45;4.45;;;;;;;8.88;100.00;98906.78;5015614;28;20025;-59
2023/03/21 06:38:05;;;;;;;9.38;4.55;;;;;;;9.02;100.00;98893.44;5029409;28;20044;-59
2023/03/21 06:40:31;;;;;;;11.05;5.10;;;;;;;9.12;100.00;98889.41;5006661;28;20026;-58
2023/03/21 06:42:56;;;;;;;11.50;5.18;;;;;;;9.32;100.00;98897.66;5024809;28;20500;-59
2023/03/21 06:45:24;;;;;;;9.93;5.20;;;;;;;9.53;100.00;98885.19;5004412;28;20037;-59
2023/03/21 06:47:49;;;;;;;10.85;5.15;;;;;;;9.86;100.00;98891.69;5006919;28;20476;-59
2023/03/21 06:50:15;;;;;;;7.82;4.78;;;;;;;10.14;100.00;98885.47;5008498;28;20029;-59
2023/03/21 06:52:41;;;;;;;9.75;4.38;;;;;;;10.39;100.00;98885.00;5023506;28;20029;-59
2023/03/21 06:55:07;;;;;;;11.93;4.60;;;;;;;10.71;100.00;98887.00;5008209;28;20084;-56
2023/03/21 06:57:33;;;;;;;9.80;4.63;;;;;;;10.98;100.00;98884.41;5009659;28;20108;-57
2023/03/21 06:59:58;;;;;;;9.48;4.38;;;;;;;11.07;100.00;98883.16;5010271;28;20124;-57
2023/03/21 07:02:23;;;;;;;12.82;4.38;;;;;;;11.08;100.00;98878.59;5013074;28;20041;-57
2023/03/21 07:04:49;;;;;;;9.05;3.90;;;;;;;11.29;100.00;98880.28;5010677;28;20124;-57
2023/03/21 07:07:14;;;;;;;10.07;4.30;;;;;;;11.69;100.00;98877.63;5003947;28;20103;-57
2023/03/21 07:09:40;;;;;;;13.40;4.35;;;;;;;11.99;100.00;98878.03;5013074;28;20029;-57
2023/03/21 07:12:05;;;;;;;14.07;4.88;;;;;;;12.44;100.00;98887.16;5018414;28;20022;-58
2023/03/21 07:14:33;;;;;;;16.33;5.05;;;;;;;12.97;100.00;98883.38;5009403;28;20030;-58
2023/03/21 07:16:58;;;;;;;11.55;5.22;;;;;;;13.14;100.00;98884.50;5008589;28;20021;-58
2023/03/21 07:19:25;;;;;;;11.95;5.20;;;;;;;14.54;100.00;98880.66;5009655;28;20440;-58
2023/03/21 07:21:51;;;;;;;11.98;5.05;;;;;;;17.55;100.00;98866.16;5015489;28;20060;-57
2023/03/21 07:24:16;;;;;;;9.65;5.38;;;;;;;18.73;79.94;98864.13;5015397;28;20025;-58
2023/03/21 07:26:42;;;;;;;7.32;4.65;;;;;;;17.67;78.39;98867.75;5015545;28;20024;-57
2023/03/21 07:29:07;;;;;;;12.00;4.75;;;;;;;15.62;98.58;98875.41;5012593;28;20598;-58
2023/03/21 07:31:32;;;;;;;15.80;5.05;;;;;;;15.49;100.00;98877.28;5007230;28;20020;-57
2023/03/21 07:33:58;;;;;;;10.77;4.50;;;;;;;15.36;100.00;98874.75;5011783;28;20194;-58
2023/03/21 07:36:23;;;;;;;6.20;3.80;;;;;;;14.95;100.00;98881.81;5008693;28;20042;-58
2023/03/21 07:38:49;;;;;;;5.10;3.08;;;;;;;14.37;100.00;98885.00;5009901;28;20029;-58
2023/03/21 07:41:15;;;;;;;6.65;3.78;;;;;;;13.98;100.00;98878.91;5015107;28;20037;-58
2023/03/21 07:43:40;;;;;;;11.68;4.70;;;;;;;14.22;100.00;98879.91;5014415;28;20463;-57
2023/03/21 07:46:05;;;;;;;11.32;3.80;;;;;;;16.24;100.00;98870.38;5012919;28;20037;-57
2023/03/21 07:48:31;;;;;;;5.13;3.22;;;;;;;19.41;75.66;98863.78;5014243;28;20123;-57
2023/03/21 07:50:56;;;;;;;7.22;3.67;;;;;;;21.61;61.80;98860.38;5007516;28;20473;-58
2023/03/21 07:53:22;;;;;;;7.72;3.45;;;;;;;24.17;52.10;98845.50;5012260;28;20066;-58
2023/03/21 07:55:52;;;;;;;6.30;2.90;;;;;;;26.18;46.07;98855.53;5012063;28;20148;-64
2023/03/21 07:58:17;;;;;;;7.05;3.28;;;;;;;26.63;43.77;98859.41;4996013;28;20041;-65
2023/03/21 08:00:43;;;;;;;5.30;2.95;;;;;;;26.71;42.56;98816.22;5013010;28;20484;-65
2023/03/21 08:03:09;;;;;;;7.25;2.95;;;;;;;27.13;41.44;98866.16;5011735;28;20037;-65
2023/03/21 08:05:36;;;;;;;7.43;2.72;;;;;;;26.47;41.89;98860.81;5013787;28;20025;-65
2023/03/21 08:08:02;;;;;;;7.75;4.05;;;;;;;24.90;42.70;98866.53;5009020;28;21651;-65
2023/03/21 08:10:28;;;;;;;8.38;3.22;;;;;;;24.51;43.97;98872.28;5008676;28;20073;-64
2023/03/21 08:12:54;;;;;;;7.43;4.15;;;;;;;24.22;44.13;98867.56;5014852;28;20398;-65
2023/03/21 08:15:19;;;;;;;6.70;3.50;;;;;;;23.32;46.08;98868.00;5020290;28;20152;-65
2023/03/21 08:17:45;;;;;;;7.40;2.67;;;;;;;24.56;44.16;98865.88;5015095;28;20018;-65
2023/03/21 08:20:15;;;;;;;6.60;3.33;;;;;;;23.72;44.92;98864.13;5012775;28;20029;-64
2023/03/21 08:22:41;;;;;;;6.22;2.72;;;;;;;24.36;45.19;98853.84;5010488;28;20030;-65
2023/03/21 08:25:07;;;;;;;7.07;3.42;;;;;;;26.26;42.14;98856.78;5008543;28;20364;-65
2023/03/21 08:27:34;;;;;;;6.15;3.08;;;;;;;27.23;40.59;98858.44;5014231;28;20028;-65
2023/03/21 08:30:00;;;;;;;4.40;2.30;;;;;;;27.90;38.58;98852.19;5020898;28;20492;-65
2023/03/21 08:32:29;;;;;;;4.55;2.72;;;;;;;28.18;38.84;98852.81;5011728;28;20036;-65
2023/03/21 08:34:58;;;;;;;5.72;2.60;;;;;;;27.39;38.42;98852.56;5007465;28;20084;-65
2023/03/21 08:37:25;;;;;;;6.63;2.70;;;;;;;28.12;38.20;98845.75;5012388;28;20107;-65
2023/03/21 08:39:51;;;;;;;4.22;2.40;;;;;;;28.57;37.44;98840.13;5015918;28;20035;-66
2023/03/21 08:42:17;;;;;;;6.10;2.67;;;;;;;27.80;37.78;98843.22;5016601;28;20029;-65
2023/03/21 08:44:42;;;;;;;5.53;2.40;;;;;;;28.26;37.38;98839.28;5024343;28;20071;-65
2023/03/21 08:47:08;;;;;;;4.43;2.50;;;;;;;28.78;36.83;98833.97;5035620;28;20421;-65
2023/03/21 08:49:36;;;;;;;2.35;1.88;;;;;;;29.14;35.14;98833.75;5020102;28;20041;-65
2023/03/21 08:52:01;;;;;;;7.07;2.17;;;;;;;29.27;35.79;98838.34;5007024;28;20025;-66
2023/03/21 08:54:27;;;;;;;4.35;2.10;;;;;;;29.00;35.86;98827.44;5014841;28;20033;-65
2023/03/21 08:56:52;;;;;;;7.82;2.65;;;;;;;28.05;36.89;98827.88;5052745;23;20053;-65
2023/03/21 08:59:18;;;;;;;3.67;2.20;;;;;;;28.46;36.00;98829.59;5014963;28;20100;-68
2023/03/21 09:01:43;;;;;;;3.60;2.00;;;;;;;29.60;34.64;98821.13;4993450;28;20053;-68
2023/03/21 09:04:09;;;;;;;5.50;2.17;;;;;;;28.31;36.08;98819.66;4999615;28;20034;-68
2023/03/21 09:06:48;;;;;;;2.97;1.63;;;;;;;30.34;32.58;98820.06;5000114;28;20030;-68
2023/03/21 09:09:15;;;;;;;3.53;1.90;;;;;;;29.47;33.91;98814.59;4995094;28;20021;-68
2023/03/21 09:11:41;;;;;;;2.80;1.80;;;;;;;29.41;33.72;98809.50;4997766;28;20033;-69
2023/03/21 09:14:09;;;;;;;3.88;2.03;;;;;;;30.85;32.75;98808.19;4998335;28;20465;-68
2023/03/21 09:16:34;;;;;;;3.80;1.75;;;;;;;29.88;33.05;98815.22;4995864;28;20028;-68
2023/03/21 09:19:02;;;;;;;3.65;1.98;;;;;;;29.23;33.75;98820.63;4994281;28;20033;-69
2023/03/21 09:21:27;;;;;;;2.97;1.77;;;;;;;29.30;33.96;98825.72;4998291;28;20350;-69
2023/03/21 09:23:57;;;;;;;2.75;1.67;;;;;;;30.80;33.15;98818.34;4989235;28;20057;-69
2023/03/21 09:26:23;;;;;;;3.20;1.40;;;;;;;29.80;33.01;98819.66;4991604;28;20453;-70
2023/03/21 09:28:49;;;;;;;3.92;1.90;;;;;;;31.41;32.00;98825.56;4995665;28;20036;-70
2023/03/21 09:31:21;;;;;;;2.60;1.33;;;;;;;29.60;31.05;98823.91;4987556;28;20030;-69
2023/03/21 09:33:54;;;;;;;3.83;1.48;;;;;;;30.08;31.46;98816.50;4997059;28;20056;-69
2023/03/21 09:36:23;;;;;;;7.68;1.50;;;;;;;29.76;31.18;98821.47;4996520;28;20121;-69
2023/03/21 09:38:49;;;;;;;;;;;;;;;28.68;32.33;98826.72;4997390;28;20097;-69
2023/03/21 09:41:40;;;;;;;2.17;1.35;;;;;;;28.50;32.71;98820.25;4990715;28;19940;-69
2023/03/21 09:44:38;;;;;;;3.97;1.13;;;;;;;29.74;31.85;98821.00;4990646;28;20119;-62
2023/03/21 09:47:27;;;;;;;2.80;1.30;;;;;;;27.99;32.84;98824.41;4976472;28;20133;-62
2023/03/21 09:50:00;;;;;;;3.85;1.25;;;;;;;27.10;34.03;98823.16;5000901;28;20466;-62
2023/03/21 09:52:58;;;;;;;2.47;1.27;;;;;;;26.97;33.84;98826.78;4991326;28;20046;-62
2023/03/21 09:55:29;;;;;;;3.20;1.55;;;;;;;26.34;35.27;98818.06;4955031;28;20108;-62
2023/03/21 09:58:07;;;;;;;3.45;1.60;;;;;;;25.36;36.50;98820.81;4988056;28;20085;-62
2023/03/21 10:00:38;;;;;;;3.60;1.40;;;;;;;24.86;37.73;98820.38;4985098;28;20037;-62
2023/03/21 10:03:10;;;;;;;2.10;1.20;;;;;;;24.51;37.18;98816.94;4988579;28;20022;-62
2023/03/21 10:05:39;;;;;;;3.00;1.10;;;;;;;25.83;36.02;98802.31;4996508;28;20030;-62
2023/03/21 10:08:14;;;;;;;3.35;1.10;;;;;;;25.18;36.21;98814.19;4994002;28;20037;-62
2023/03/21 10:10:47;;;;;;;4.63;1.48;;;;;;;27.01;36.01;98802.81;4986645;28;20042;-62
2023/03/21 10:13:19;;;;;;;4.00;1.27;;;;;;;27.13;33.55;98799.50;4992656;28;20030;-62
2023/03/21 10:15:45;;;;;;;2.95;1.30;;;;;;;26.38;34.30;98793.28;4995606;28;20026;-62
2023/03/21 10:18:18;;;;;;;2.95;1.48;;;;;;;26.41;34.49;98784.38;4996054;28;20030;-62
2023/03/21 10:20:44;;;;;;;3.33;1.65;;;;;;;25.84;35.27;98792.06;4992503;28;20022;-62
2023/03/21 10:23:15;;;;;;;4.97;1.55;;;;;;;24.97;36.55;98790.63;4995496;28;20573;-61
2023/03/21 10:25:55;;;;;;;3.25;1.60;;;;;;;23.74;36.80;98794.78;5012856;28;20121;-61
2023/03/21 10:28:25;;;;;;;2.33;1.52;;;;;;;24.04;37.19;98794.47;5006429;28;20029;-61
2023/03/21 10:30:52;;;;;;;3.10;1.40;;;;;;;23.91;37.72;98786.88;4991005;28;20072;-61
2023/03/21 10:33:24;;;;;;;4.13;1.58;;;;;;;26.01;35.31;98781.22;4992486;28;20030;-61
2023/03/21 10:35:55;;;;;;;3.20;1.55;;;;;;;26.39;34.43;98781.06;4993616;28;20028;-61
2023/03/21 10:38:24;;;;;;;4.07;1.65;;;;;;;25.96;35.47;98778.56;4997294;28;20022;-62
2023/03/21 10:40:50;;;;;;;2.25;1.30;;;;;;;25.88;35.73;98777.31;4986840;28;20033;-61
2023/03/21 10:43:26;;;;;;;3.25;1.45;;;;;;;26.08;35.75;98773.34;5003944;28;20022;-61
2023/03/21 10:45:54;;;;;;;5.38;1.80;;;;;;;25.40;35.27;98777.53;4995120;28;20049;-61
2023/03/21 10:48:20;;;;;;;3.33;1.38;;;;;;;25.29;36.71;98773.31;4986525;28;20549;-61
2023/03/21 10:50:48;;;;;;;3.38;1.65;;;;;;;26.39;36.91;98765.25;4991816;28;20124;-61
2023/03/21 10:53:37;;;;;;;2.28;1.42;;;;;;;26.64;35.55;98771.41;5009679;28;20022;-61
2023/03/21 10:56:08;;;;;;;5.70;2.03;;;;;;;25.34;36.47;98762.97;4988317;28;20095;-62
2023/03/21 10:58:40;;;;;;;4.53;1.30;;;;;;;25.56;36.82;98769.81;5001585;28;20504;-61
2023/03/21 11:01:13;;;;;;;5.63;1.58;;;;;;;25.35;37.01;98763.78;4994568;28;20036;-62
2023/03/21 11:03:45;;;;;;;3.17;1.58;;;;;;;24.32;38.37;98774.56;4991609;28;20045;-62
2023/03/21 11:06:35;;;;;;;7.15;2.17;;;;;;;23.26;39.35;98769.72;5013767;28;20032;-64
2023/03/21 11:09:07;;;;;;;3.65;1.60;;;;;;;22.44;41.19;98782.03;5000518;28;20033;-62
2023/03/21 11:12:00;;;;;;;2.35;1.60;;;;;;;22.39;41.64;98779.28;4992232;28;20187;-66
2023/03/21 11:14:33;;;;;;;3.50;2.30;;;;;;;21.60;42.83;98770.63;5002310;28;20043;-62
2023/03/21 11:16:58;;;;;;;5.05;2.15;;;;;;;21.57;42.59;98762.91;5011179;28;20120;-61
2023/03/21 11:19:32;;;;;;;3.22;1.85;;;;;;;21.95;42.35;98766.16;4993681;28;20121;-62
2023/03/21 11:22:02;;;;;;;3.00;1.58;;;;;;;22.54;41.58;98759.09;5005397;28;20036;-65
2023/03/21 11:24:29;;;;;;;4.80;1.95;;;;;;;23.16;40.90;98754.06;5002924;28;20038;-62
2023/03/21 11:26:56;;;;;;;4.43;1.75;;;;;;;23.40;39.69;98760.50;5028121;28;20048;-62
2023/03/21 11:29:26;;;;;;;4.63;1.90;;;;;;;22.60;40.30;98752.44;4994934;28;20382;-62
2023/03/21 11:31:51;;;;;;;5.82;1.70;;;;;;;21.71;41.78;98754.09;4995297;28;20167;-62
2023/03/21 11:34:40;;;;;;;4.82;1.70;;;;;;;20.08;44.37;98758.09;4987711;28;20034;-61
2023/03/21 11:37:17;;;;;;;4.10;1.80;;;;;;;19.83;44.12;98753.28;4985217;28;20138;-61
2023/03/21 11:39:44;;;;;;;2.38;1.40;;;;;;;19.69;44.36;98753.75;4984129;28;20037;-61
2023/03/21 11:42:28;;;;;;;2.42;1.17;;;;;;;19.91;43.75;98748.13;5025874;28;20029;-62
2023/03/21 11:45:10;;;;;;;4.43;1.52;;;;;;;20.06;45.09;98746.53;5006805;28;20053;-62